Startpagina
METAR-TAF:

METAR-TAF

Vliegvelden :

Militair vliegvled

Morón de la Frontera, Spanje

breedte: 37-09N, lengte: 005-37W, hoogte: 87 m

Actueel weer

Dit bericht is 59 minuten geleden gemaakt, om 19:00 UTC
Wind 14 kt uit het zuidwesten, variërend tussen het zuidzuidwesten en het westen
Temperatuur 17°C
Vochtigheid 72%
Druk 1003 hPa
Zicht 10 km of meer
geen wolken onder 1500 m en geen cumulonimbus

METAR: LEMO 221900Z 23014KT 200V260 CAVOK 17/12 Q1003 NOSIG

Tijdstip: 21:59 (19:59 UTC)

Verwachting

Dit bericht is 2 uur en het 59 minuten geleden gemaakt, om 17:00 UTC
Verwachting geldig van 22 om 18 UTC tot 23 om 03 UTC
Wind 14 kt uit het zuidwesten
Zicht 10 km of meer
Verspreide wolken op 3000 ft
Tijdelijke
van 22 om 18 UTC tot 22 om 20 UTC
Wind 16 kt uit het westzuidwesten met uitschieters tot 28 kt
Kans 40% :
Tijdelijke
van 22 om 22 UTC tot 23 om 03 UTC
Gebroken wolken op 1400 ft

TAF: LEMO 221700Z 2218/2303 23014KT 9999 SCT030 TEMPO 2218/2220 24016G28KT PROB40 TEMPO 2222/2303 BKN014

Waarnemingen en weersverwachtingen van meer dan 4000 vliegvelden (METAR en TAF).

De beschikbare stations zijn de gele en rode punten op de kaart.

Ga met uw muis naar het station om de naam te zien.

Klik dan om waarnemingen en weersverwachtingen te zien.

kaart wijzigen: klik op de groene knoppen met een zwart kruis om in te zoomen, op de groene knop met een streepje om uit te zoomen of op de groene pijlen voor aangrenzende kaarten.


METAR-TAF: